sensor_id;sensor_type;location;lat;lon;timestamp;pressure;altitude;pressure_sealevel;temperature;humidity
9855;BME280;4966;48.112;9.282;2022-10-23T00:03:49;94872.94;;;9.04;92.91
9855;BME280;4966;48.112;9.282;2022-10-23T00:06:15;94879.81;;;8.93;93.69
9855;BME280;4966;48.112;9.282;2022-10-23T00:08:41;94868.66;;;9.03;93.73
9855;BME280;4966;48.112;9.282;2022-10-23T00:11:08;94868.78;;;9.07;93.42
9855;BME280;4966;48.112;9.282;2022-10-23T00:13:34;94868.09;;;9.19;93.18
9855;BME280;4966;48.112;9.282;2022-10-23T00:15:59;94862.72;;;9.10;92.96
9855;BME280;4966;48.112;9.282;2022-10-23T00:18:24;94867.81;;;9.11;92.47
9855;BME280;4966;48.112;9.282;2022-10-23T00:20:50;94864.63;;;9.09;92.73
9855;BME280;4966;48.112;9.282;2022-10-23T00:23:15;94865.44;;;9.10;92.62
9855;BME280;4966;48.112;9.282;2022-10-23T00:25:41;94869.78;;;8.85;94.91
9855;BME280;4966;48.112;9.282;2022-10-23T00:28:06;94863.50;;;9.10;93.41
9855;BME280;4966;48.112;9.282;2022-10-23T00:30:32;94862.56;;;9.06;93.08
9855;BME280;4966;48.112;9.282;2022-10-23T00:32:57;94865.44;;;9.01;93.41
9855;BME280;4966;48.112;9.282;2022-10-23T00:35:22;94867.16;;;9.14;92.80
9855;BME280;4966;48.112;9.282;2022-10-23T00:37:48;94865.09;;;9.11;92.14
9855;BME280;4966;48.112;9.282;2022-10-23T00:40:13;94868.81;;;8.98;92.51
9855;BME280;4966;48.112;9.282;2022-10-23T00:42:38;94862.75;;;9.01;92.48
9855;BME280;4966;48.112;9.282;2022-10-23T00:47:34;94871.47;;;9.24;91.07
9855;BME280;4966;48.112;9.282;2022-10-23T00:50:00;94857.06;;;9.24;90.15
9855;BME280;4966;48.112;9.282;2022-10-23T00:52:26;94860.50;;;9.03;91.30
9855;BME280;4966;48.112;9.282;2022-10-23T00:54:52;94850.13;;;8.97;91.23
9855;BME280;4966;48.112;9.282;2022-10-23T00:57:17;94850.16;;;8.88;91.88
9855;BME280;4966;48.112;9.282;2022-10-23T00:59:42;94848.75;;;8.82;92.11
9855;BME280;4966;48.112;9.282;2022-10-23T01:02:08;94845.19;;;8.90;91.68
9855;BME280;4966;48.112;9.282;2022-10-23T01:04:35;94844.59;;;8.84;91.81
9855;BME280;4966;48.112;9.282;2022-10-23T01:07:22;94843.94;;;8.87;91.71
9855;BME280;4966;48.112;9.282;2022-10-23T01:21:30;94832.94;;;8.84;92.00
9855;BME280;4966;48.112;9.282;2022-10-23T01:24:16;94836.44;;;8.84;92.24
9855;BME280;4966;48.112;9.282;2022-10-23T01:26:59;94830.97;;;9.02;91.93
9855;BME280;4966;48.112;9.282;2022-10-23T01:29:38;94826.63;;;9.09;90.46
9855;BME280;4966;48.112;9.282;2022-10-23T01:32:09;94828.13;;;8.98;90.59
9855;BME280;4966;48.112;9.282;2022-10-23T01:34:46;94836.75;;;8.83;91.22
9855;BME280;4966;48.112;9.282;2022-10-23T01:37:13;94831.50;;;8.78;91.66
9855;BME280;4966;48.112;9.282;2022-10-23T01:39:44;94824.19;;;8.69;92.72
9855;BME280;4966;48.112;9.282;2022-10-23T01:42:24;94808.34;;;8.89;91.98
9855;BME280;4966;48.112;9.282;2022-10-23T01:45:03;94808.66;;;8.96;91.45
9855;BME280;4966;48.112;9.282;2022-10-23T01:47:33;94816.19;;;8.73;92.28
9855;BME280;4966;48.112;9.282;2022-10-23T01:50:02;94814.59;;;8.81;92.01
9855;BME280;4966;48.112;9.282;2022-10-23T01:52:29;94808.53;;;8.84;91.59
9855;BME280;4966;48.112;9.282;2022-10-23T01:54:58;94808.34;;;8.89;91.58
9855;BME280;4966;48.112;9.282;2022-10-23T01:57:25;94805.47;;;8.94;92.04
9855;BME280;4966;48.112;9.282;2022-10-23T02:00:03;94807.63;;;9.09;91.77
9855;BME280;4966;48.112;9.282;2022-10-23T02:02:31;94804.59;;;9.11;92.74
9855;BME280;4966;48.112;9.282;2022-10-23T02:05:02;94798.63;;;9.26;92.71
9855;BME280;4966;48.112;9.282;2022-10-23T02:07:30;94807.22;;;9.37;92.05
9855;BME280;4966;48.112;9.282;2022-10-23T02:09:55;94805.25;;;9.46;91.67
9855;BME280;4966;48.112;9.282;2022-10-23T02:13:25;94797.91;;;9.47;91.94
9855;BME280;4966;48.112;9.282;2022-10-23T02:20:27;94796.06;;;9.59;91.68
9855;BME280;4966;48.112;9.282;2022-10-23T02:23:04;94784.69;;;9.66;91.28
9855;BME280;4966;48.112;9.282;2022-10-23T02:25:36;94784.09;;;9.61;91.99
9855;BME280;4966;48.112;9.282;2022-10-23T02:28:06;94785.81;;;9.65;91.26
9855;BME280;4966;48.112;9.282;2022-10-23T02:30:36;94781.84;;;9.63;91.39
9855;BME280;4966;48.112;9.282;2022-10-23T02:33:05;94775.94;;;9.82;89.07
9855;BME280;4966;48.112;9.282;2022-10-23T02:35:32;94782.81;;;9.79;89.49
9855;BME280;4966;48.112;9.282;2022-10-23T02:37:59;94766.38;;;9.54;90.34
9855;BME280;4966;48.112;9.282;2022-10-23T02:40:34;94768.56;;;9.61;89.67
9855;BME280;4966;48.112;9.282;2022-10-23T02:43:26;94764.44;;;9.55;90.01
9855;BME280;4966;48.112;9.282;2022-10-23T02:46:05;94770.78;;;9.38;90.40
9855;BME280;4966;48.112;9.282;2022-10-23T02:49:04;94759.13;;;9.37;90.00
9855;BME280;4966;48.112;9.282;2022-10-23T02:54:14;94751.13;;;9.41;89.22
9855;BME280;4966;48.112;9.282;2022-10-23T02:56:54;94741.97;;;9.25;89.53
9855;BME280;4966;48.112;9.282;2022-10-23T02:59:35;94763.09;;;9.10;89.99
9855;BME280;4966;48.112;9.282;2022-10-23T03:02:25;94761.03;;;9.07;89.95
9855;BME280;4966;48.112;9.282;2022-10-23T03:04:54;94758.88;;;9.22;89.22
9855;BME280;4966;48.112;9.282;2022-10-23T03:07:19;94759.94;;;9.00;89.76
9855;BME280;4966;48.112;9.282;2022-10-23T03:09:45;94757.53;;;9.07;89.72
9855;BME280;4966;48.112;9.282;2022-10-23T03:12:10;94765.31;;;9.17;88.43
9855;BME280;4966;48.112;9.282;2022-10-23T03:14:36;94770.38;;;8.89;89.73
9855;BME280;4966;48.112;9.282;2022-10-23T03:17:02;94757.72;;;9.02;90.14
9855;BME280;4966;48.112;9.282;2022-10-23T03:19:27;94764.59;;;8.99;90.11
9855;BME280;4966;48.112;9.282;2022-10-23T03:21:52;94762.44;;;8.75;91.44
9855;BME280;4966;48.112;9.282;2022-10-23T03:24:18;94761.28;;;8.85;91.24
9855;BME280;4966;48.112;9.282;2022-10-23T03:26:43;94757.53;;;8.60;92.23
9855;BME280;4966;48.112;9.282;2022-10-23T03:29:08;94757.53;;;8.60;91.87
9855;BME280;4966;48.112;9.282;2022-10-23T03:31:34;94762.66;;;8.52;91.88
9855;BME280;4966;48.112;9.282;2022-10-23T03:33:59;94751.81;;;8.52;92.46
9855;BME280;4966;48.112;9.282;2022-10-23T03:36:24;94747.00;;;8.67;92.02
9855;BME280;4966;48.112;9.282;2022-10-23T03:38:51;94744.44;;;8.62;92.20
9855;BME280;4966;48.112;9.282;2022-10-23T03:41:16;94740.50;;;8.50;92.24
9855;BME280;4966;48.112;9.282;2022-10-23T03:43:41;94740.69;;;8.45;92.56
9855;BME280;4966;48.112;9.282;2022-10-23T03:46:07;94739.72;;;8.41;92.98
9855;BME280;4966;48.112;9.282;2022-10-23T03:48:36;94733.78;;;8.39;92.49
9855;BME280;4966;48.112;9.282;2022-10-23T03:51:03;94733.34;;;8.46;92.36
9855;BME280;4966;48.112;9.282;2022-10-23T03:53:29;94731.38;;;8.38;91.58
9855;BME280;4966;48.112;9.282;2022-10-23T03:55:54;94733.66;;;8.27;92.09
9855;BME280;4966;48.112;9.282;2022-10-23T03:58:20;94725.69;;;8.22;92.15
9855;BME280;4966;48.112;9.282;2022-10-23T04:00:45;94725.69;;;8.22;93.05
9855;BME280;4966;48.112;9.282;2022-10-23T04:03:10;94725.84;;;8.34;92.42
9855;BME280;4966;48.112;9.282;2022-10-23T04:05:36;94727.44;;;8.44;91.58
9855;BME280;4966;48.112;9.282;2022-10-23T04:08:02;94721.69;;;8.37;91.74
9855;BME280;4966;48.112;9.282;2022-10-23T04:10:27;94739.06;;;8.44;91.26
9855;BME280;4966;48.112;9.282;2022-10-23T04:12:52;94726.94;;;8.33;91.56
9855;BME280;4966;48.112;9.282;2022-10-23T04:15:18;94733.66;;;8.18;92.15
9855;BME280;4966;48.112;9.282;2022-10-23T04:17:43;94731.91;;;8.22;92.08
9855;BME280;4966;48.112;9.282;2022-10-23T04:20:08;94730.97;;;8.01;93.79
9855;BME280;4966;48.112;9.282;2022-10-23T04:22:34;94727.97;;;7.94;94.53
9855;BME280;4966;48.112;9.282;2022-10-23T04:24:59;94718.41;;;7.96;94.37
9855;BME280;4966;48.112;9.282;2022-10-23T04:27:24;94719.97;;;8.06;93.04
9855;BME280;4966;48.112;9.282;2022-10-23T04:29:50;94716.91;;;8.16;92.74
9855;BME280;4966;48.112;9.282;2022-10-23T04:32:15;94722.50;;;8.11;92.83
9855;BME280;4966;48.112;9.282;2022-10-23T04:34:40;94720.75;;;8.06;93.19
9855;BME280;4966;48.112;9.282;2022-10-23T04:37:06;94724.09;;;8.21;92.91
9855;BME280;4966;48.112;9.282;2022-10-23T04:39:31;94714.81;;;8.30;92.34
9855;BME280;4966;48.112;9.282;2022-10-23T04:41:56;94715.19;;;8.12;92.13
9855;BME280;4966;48.112;9.282;2022-10-23T04:44:22;94712.81;;;8.01;92.20
9855;BME280;4966;48.112;9.282;2022-10-23T04:46:47;94712.97;;;7.96;92.38
9855;BME280;4966;48.112;9.282;2022-10-23T04:49:13;94711.09;;;7.88;93.09
9855;BME280;4966;48.112;9.282;2022-10-23T04:51:38;94705.16;;;7.95;93.16
9855;BME280;4966;48.112;9.282;2022-10-23T04:54:03;94704.69;;;8.01;92.78
9855;BME280;4966;48.112;9.282;2022-10-23T04:56:29;94697.97;;;8.16;92.10
9855;BME280;4966;48.112;9.282;2022-10-23T04:58:54;94700.88;;;8.02;92.16
9855;BME280;4966;48.112;9.282;2022-10-23T05:01:19;94707.41;;;7.58;95.46
9855;BME280;4966;48.112;9.282;2022-10-23T05:03:45;94705.16;;;7.95;92.90
9855;BME280;4966;48.112;9.282;2022-10-23T05:06:10;94704.22;;;7.91;92.91
9855;BME280;4966;48.112;9.282;2022-10-23T05:08:35;94703.09;;;7.65;93.89
9855;BME280;4966;48.112;9.282;2022-10-23T05:11:01;94709.94;;;7.63;95.09
9855;BME280;4966;48.112;9.282;2022-10-23T05:13:26;94707.25;;;7.80;93.97
9855;BME280;4966;48.112;9.282;2022-10-23T05:15:52;94714.25;;;7.81;93.37
9855;BME280;4966;48.112;9.282;2022-10-23T05:18:21;94711.25;;;7.83;93.29
9855;BME280;4966;48.112;9.282;2022-10-23T05:20:49;94707.88;;;7.95;92.64
9855;BME280;4966;48.112;9.282;2022-10-23T05:23:17;94707.72;;;7.82;91.91
9855;BME280;4966;48.112;9.282;2022-10-23T05:25:43;94709.16;;;7.80;92.44
9855;BME280;4966;48.112;9.282;2022-10-23T05:28:09;94707.88;;;7.77;92.41
9855;BME280;4966;48.112;9.282;2022-10-23T05:30:34;94707.25;;;7.72;93.44
9855;BME280;4966;48.112;9.282;2022-10-23T05:33:01;94707.59;;;7.61;94.26
9855;BME280;4966;48.112;9.282;2022-10-23T05:35:27;94703.13;;;7.74;93.59
9855;BME280;4966;48.112;9.282;2022-10-23T05:37:54;94706.28;;;7.85;93.11
9855;BME280;4966;48.112;9.282;2022-10-23T05:40:20;94705.19;;;7.86;92.77
9855;BME280;4966;48.112;9.282;2022-10-23T05:42:45;94702.63;;;7.98;92.75
9855;BME280;4966;48.112;9.282;2022-10-23T05:45:11;94701.66;;;8.03;91.83
9855;BME280;4966;48.112;9.282;2022-10-23T05:47:36;94701.81;;;7.89;92.45
9855;BME280;4966;48.112;9.282;2022-10-23T05:50:02;94702.00;;;7.93;92.43
9855;BME280;4966;48.112;9.282;2022-10-23T05:52:27;94694.94;;;8.09;91.86
9855;BME280;4966;48.112;9.282;2022-10-23T05:54:52;94703.72;;;7.97;91.83
9855;BME280;4966;48.112;9.282;2022-10-23T05:57:18;94707.09;;;7.85;92.05
9855;BME280;4966;48.112;9.282;2022-10-23T05:59:43;94706.63;;;7.83;92.29
9855;BME280;4966;48.112;9.282;2022-10-23T06:02:09;94708.69;;;7.86;92.03
9855;BME280;4966;48.112;9.282;2022-10-23T06:04:34;94702.97;;;7.88;90.65
9855;BME280;4966;48.112;9.282;2022-10-23T06:07:00;94696.28;;;7.85;90.51
9855;BME280;4966;48.112;9.282;2022-10-23T06:09:26;94709.31;;;7.66;91.05
9855;BME280;4966;48.112;9.282;2022-10-23T06:11:51;94711.22;;;7.31;94.59
9855;BME280;4966;48.112;9.282;2022-10-23T06:14:16;94714.41;;;7.59;93.39
9855;BME280;4966;48.112;9.282;2022-10-23T06:16:42;94717.13;;;7.76;92.80
9855;BME280;4966;48.112;9.282;2022-10-23T06:19:11;94714.75;;;7.75;92.51
9855;BME280;4966;48.112;9.282;2022-10-23T06:21:37;94723.97;;;7.82;92.41
9855;BME280;4966;48.112;9.282;2022-10-23T06:24:04;94713.75;;;7.97;91.52
9855;BME280;4966;48.112;9.282;2022-10-23T06:26:29;94711.53;;;7.99;91.67
9855;BME280;4966;48.112;9.282;2022-10-23T06:28:55;94718.09;;;7.98;92.64
9855;BME280;4966;48.112;9.282;2022-10-23T06:31:21;94702.75;;;8.02;92.90
9855;BME280;4966;48.112;9.282;2022-10-23T06:33:53;94710.72;;;8.16;92.69
9855;BME280;4966;48.112;9.282;2022-10-23T06:36:18;94725.34;;;8.23;93.30
9855;BME280;4966;48.112;9.282;2022-10-23T06:38:43;94724.56;;;8.31;93.28
9855;BME280;4966;48.112;9.282;2022-10-23T06:41:19;94722.31;;;8.51;90.93
9855;BME280;4966;48.112;9.282;2022-10-23T06:43:49;94721.31;;;8.64;90.79
9855;BME280;4966;48.112;9.282;2022-10-23T06:46:15;94722.75;;;8.62;91.14
9855;BME280;4966;48.112;9.282;2022-10-23T06:48:41;94719.91;;;8.58;92.25
9855;BME280;4966;48.112;9.282;2022-10-23T06:51:08;94713.78;;;8.70;91.71
9855;BME280;4966;48.112;9.282;2022-10-23T06:53:35;94722.34;;;8.89;91.75
9855;BME280;4966;48.112;9.282;2022-10-23T06:56:02;94727.34;;;9.08;91.39
9855;BME280;4966;48.112;9.282;2022-10-23T06:58:28;94725.34;;;8.97;92.17
9855;BME280;4966;48.112;9.282;2022-10-23T07:00:53;94732.00;;;9.08;92.36
9855;BME280;4966;48.112;9.282;2022-10-23T07:03:19;94717.53;;;9.25;91.76
9855;BME280;4966;48.112;9.282;2022-10-23T07:05:44;94731.22;;;9.28;91.63
9855;BME280;4966;48.112;9.282;2022-10-23T07:08:11;94726.06;;;9.35;92.33
9855;BME280;4966;48.112;9.282;2022-10-23T07:10:37;94724.69;;;9.50;92.71
9855;BME280;4966;48.112;9.282;2022-10-23T07:13:02;94716.56;;;9.71;92.05
9855;BME280;4966;48.112;9.282;2022-10-23T07:15:28;94714.91;;;9.79;92.81
9855;BME280;4966;48.112;9.282;2022-10-23T07:17:54;94716.84;;;9.78;91.46
9855;BME280;4966;48.112;9.282;2022-10-23T07:20:20;94719.66;;;10.03;92.59
9855;BME280;4966;48.112;9.282;2022-10-23T07:22:53;94722.81;;;10.26;92.67
9855;BME280;4966;48.112;9.282;2022-10-23T07:25:20;94717.38;;;10.26;91.27
9855;BME280;4966;48.112;9.282;2022-10-23T07:27:45;94713.28;;;10.53;92.55
9855;BME280;4966;48.112;9.282;2022-10-23T07:30:12;94702.81;;;10.76;90.97
9855;BME280;4966;48.112;9.282;2022-10-23T07:32:38;94704.75;;;10.88;92.39
9855;BME280;4966;48.112;9.282;2022-10-23T07:35:04;94701.25;;;11.00;92.51
9855;BME280;4966;48.112;9.282;2022-10-23T07:37:29;94716.88;;;11.03;91.77
9855;BME280;4966;48.112;9.282;2022-10-23T07:39:55;94709.69;;;10.49;92.40
9855;BME280;4966;48.112;9.282;2022-10-23T07:42:20;94716.88;;;10.78;92.50
9855;BME280;4966;48.112;9.282;2022-10-23T07:44:46;94698.00;;;10.49;92.89
9855;BME280;4966;48.112;9.282;2022-10-23T07:47:11;94702.56;;;10.57;92.12
9855;BME280;4966;48.112;9.282;2022-10-23T07:49:36;94703.34;;;10.24;94.10
9855;BME280;4966;48.112;9.282;2022-10-23T07:52:04;94696.88;;;10.62;92.18
9855;BME280;4966;48.112;9.282;2022-10-23T07:54:29;94700.09;;;10.89;91.39
9855;BME280;4966;48.112;9.282;2022-10-23T07:56:54;94699.44;;;11.04;91.65
9855;BME280;4966;48.112;9.282;2022-10-23T07:59:20;94704.53;;;11.05;91.48
9855;BME280;4966;48.112;9.282;2022-10-23T08:01:45;94702.47;;;11.27;91.29
9855;BME280;4966;48.112;9.282;2022-10-23T08:04:12;94698.81;;;11.60;91.08
9855;BME280;4966;48.112;9.282;2022-10-23T08:06:37;94706.19;;;11.59;90.75
9855;BME280;4966;48.112;9.282;2022-10-23T08:09:03;94702.16;;;11.81;89.56
9855;BME280;4966;48.112;9.282;2022-10-23T08:11:28;94704.34;;;12.16;89.59
9855;BME280;4966;48.112;9.282;2022-10-23T08:14:00;94709.38;;;12.14;89.63
9855;BME280;4966;48.112;9.282;2022-10-23T08:16:30;94713.66;;;12.15;91.08
9855;BME280;4966;48.112;9.282;2022-10-23T08:18:56;94716.88;;;12.33;90.61
9855;BME280;4966;48.112;9.282;2022-10-23T08:21:21;94712.38;;;12.25;91.83
9855;BME280;4966;48.112;9.282;2022-10-23T08:23:47;94713.59;;;12.55;91.67
9855;BME280;4966;48.112;9.282;2022-10-23T08:26:12;94713.44;;;12.80;90.38
9855;BME280;4966;48.112;9.282;2022-10-23T08:28:38;94703.25;;;12.93;89.24
9855;BME280;4966;48.112;9.282;2022-10-23T08:31:15;94711.00;;;13.23;89.35
9855;BME280;4966;48.112;9.282;2022-10-23T08:33:41;94684.38;;;13.35;88.96
9855;BME280;4966;48.112;9.282;2022-10-23T08:36:24;94670.97;;;13.46;88.29
9855;BME280;4966;48.112;9.282;2022-10-23T08:38:51;94687.19;;;13.23;89.23
9855;BME280;4966;48.112;9.282;2022-10-23T08:41:33;94695.84;;;13.25;89.90
9855;BME280;4966;48.112;9.282;2022-10-23T08:46:46;94674.34;;;13.75;87.48
9855;BME280;4966;48.112;9.282;2022-10-23T08:51:53;94681.69;;;13.90;89.47
9855;BME280;4966;48.112;9.282;2022-10-23T08:54:33;94676.28;;;13.94;87.34
9855;BME280;4966;48.112;9.282;2022-10-23T08:57:10;94667.66;;;13.92;88.29
9855;BME280;4966;48.112;9.282;2022-10-23T08:59:48;94671.81;;;14.05;88.07
9855;BME280;4966;48.112;9.282;2022-10-23T09:04:45;94683.19;;;14.26;85.67
9855;BME280;4966;48.112;9.282;2022-10-23T09:12:37;94660.53;;;14.68;83.87
9855;BME280;4966;48.112;9.282;2022-10-23T09:18:01;94674.66;;;14.71;84.60
9855;BME280;4966;48.112;9.282;2022-10-23T09:20:32;94675.63;;;15.05;82.19
9855;BME280;4966;48.112;9.282;2022-10-23T09:23:06;94658.34;;;15.27;80.57
9855;BME280;4966;48.112;9.282;2022-10-23T09:25:38;94650.66;;;15.37;80.03
9855;BME280;4966;48.112;9.282;2022-10-23T09:28:04;94653.69;;;15.55;80.23
9855;BME280;4966;48.112;9.282;2022-10-23T09:30:37;94654.75;;;15.73;81.04
9855;BME280;4966;48.112;9.282;2022-10-23T09:33:20;94650.25;;;15.88;78.71
9855;BME280;4966;48.112;9.282;2022-10-23T09:36:05;94651.47;;;16.28;78.28
9855;BME280;4966;48.112;9.282;2022-10-23T09:38:36;94651.28;;;16.44;77.25
9855;BME280;4966;48.112;9.282;2022-10-23T09:41:15;94636.19;;;16.64;75.56
9855;BME280;4966;48.112;9.282;2022-10-23T09:43:42;94651.91;;;16.30;75.81
9855;BME280;4966;48.112;9.282;2022-10-23T09:46:08;94652.44;;;16.43;72.48
9855;BME280;4966;48.112;9.282;2022-10-23T09:48:35;94644.38;;;16.61;72.05
9855;BME280;4966;48.112;9.282;2022-10-23T09:51:16;94639.91;;;16.83;68.27
9855;BME280;4966;48.112;9.282;2022-10-23T09:53:57;94640.03;;;17.49;67.19
9855;BME280;4966;48.112;9.282;2022-10-23T09:56:26;94645.28;;;17.75;65.54
9855;BME280;4966;48.112;9.282;2022-10-23T09:58:59;94634.53;;;17.49;66.37
9855;BME280;4966;48.112;9.282;2022-10-23T10:01:34;94640.66;;;17.83;65.61
9855;BME280;4966;48.112;9.282;2022-10-23T10:04:02;94646.03;;;17.69;63.38
9855;BME280;4966;48.112;9.282;2022-10-23T10:06:31;94640.41;;;18.17;61.70
9855;BME280;4966;48.112;9.282;2022-10-23T10:08:59;94632.78;;;17.81;64.48
9855;BME280;4966;48.112;9.282;2022-10-23T10:11:34;94634.94;;;18.27;63.56
9855;BME280;4966;48.112;9.282;2022-10-23T10:22:34;94646.03;;;18.53;61.16
9855;BME280;4966;48.112;9.282;2022-10-23T10:30:22;94628.75;;;19.77;57.63
9855;BME280;4966;48.112;9.282;2022-10-23T10:33:21;94635.03;;;19.89;56.39
9855;BME280;4966;48.112;9.282;2022-10-23T10:49:26;94621.91;;;20.18;55.73
9855;BME280;4966;48.112;9.282;2022-10-23T10:52:09;94593.06;;;20.96;54.62
9855;BME280;4966;48.112;9.282;2022-10-23T10:55:13;94593.28;;;21.16;53.53
9855;BME280;4966;48.112;9.282;2022-10-23T10:57:49;94604.59;;;21.33;51.75
9855;BME280;4966;48.112;9.282;2022-10-23T11:00:17;94602.19;;;21.42;51.51
9855;BME280;4966;48.112;9.282;2022-10-23T11:02:48;94591.28;;;21.65;50.19
9855;BME280;4966;48.112;9.282;2022-10-23T11:05:37;94595.38;;;20.38;53.03
9855;BME280;4966;48.112;9.282;2022-10-23T11:08:12;94595.84;;;21.41;49.92
9855;BME280;4966;48.112;9.282;2022-10-23T11:10:51;94599.03;;;21.36;53.00
9855;BME280;4966;48.112;9.282;2022-10-23T11:13:33;94596.84;;;21.17;53.04
9855;BME280;4966;48.112;9.282;2022-10-23T11:16:23;94587.91;;;20.98;53.21
9855;BME280;4966;48.112;9.282;2022-10-23T11:21:39;94591.78;;;21.53;51.31
9855;BME280;4966;48.112;9.282;2022-10-23T11:26:44;94577.94;;;22.25;49.85
9855;BME280;4966;48.112;9.282;2022-10-23T11:36:57;94558.38;;;22.36;50.09
9855;BME280;4966;48.112;9.282;2022-10-23T11:39:28;94546.19;;;23.35;48.34
9855;BME280;4966;48.112;9.282;2022-10-23T11:41:55;94539.16;;;24.50;44.75
9855;BME280;4966;48.112;9.282;2022-10-23T11:44:27;94542.28;;;26.38;40.28
9855;BME280;4966;48.112;9.282;2022-10-23T11:47:05;94530.81;;;28.71;34.51
9855;BME280;4966;48.112;9.282;2022-10-23T11:49:31;94524.72;;;29.62;33.26
9855;BME280;4966;48.112;9.282;2022-10-23T11:52:05;94525.94;;;29.43;33.51
9855;BME280;4966;48.112;9.282;2022-10-23T11:54:46;94524.94;;;29.18;33.73
9855;BME280;4966;48.112;9.282;2022-10-23T11:57:14;94514.44;;;29.50;32.84
9855;BME280;4966;48.112;9.282;2022-10-23T12:02:31;94519.06;;;28.00;35.92
9855;BME280;4966;48.112;9.282;2022-10-23T12:05:04;94526.09;;;27.35;37.66
9855;BME280;4966;48.112;9.282;2022-10-23T12:07:39;94517.56;;;26.79;38.35
9855;BME280;4966;48.112;9.282;2022-10-23T12:10:43;94519.16;;;27.40;37.90
9855;BME280;4966;48.112;9.282;2022-10-23T12:16:02;94518.34;;;26.66;39.50
9855;BME280;4966;48.112;9.282;2022-10-23T12:18:27;94512.09;;;25.65;41.17
9855;BME280;4966;48.112;9.282;2022-10-23T12:20:56;94514.31;;;25.41;42.48
9855;BME280;4966;48.112;9.282;2022-10-23T12:26:09;94502.53;;;24.35;43.93
9855;BME280;4966;48.112;9.282;2022-10-23T12:29:05;94499.66;;;24.03;43.85
9855;BME280;4966;48.112;9.282;2022-10-23T12:31:45;94498.88;;;23.62;47.13
9855;BME280;4966;48.112;9.282;2022-10-23T12:34:41;94490.81;;;23.28;48.49
9855;BME280;4966;48.112;9.282;2022-10-23T12:40:13;94477.56;;;23.35;47.78
9855;BME280;4966;48.112;9.282;2022-10-23T12:42:39;94488.03;;;23.28;48.82
9855;BME280;4966;48.112;9.282;2022-10-23T12:45:27;94478.56;;;23.25;49.19
9855;BME280;4966;48.112;9.282;2022-10-23T12:47:54;94482.41;;;22.34;49.93
9855;BME280;4966;48.112;9.282;2022-10-23T12:50:28;94473.56;;;22.15;51.45
9855;BME280;4966;48.112;9.282;2022-10-23T12:55:33;94463.25;;;21.58;54.74
9855;BME280;4966;48.112;9.282;2022-10-23T12:58:26;94463.84;;;21.38;55.64
9855;BME280;4966;48.112;9.282;2022-10-23T13:00:58;94454.41;;;21.32;56.90
9855;BME280;4966;48.112;9.282;2022-10-23T13:03:25;94442.94;;;21.68;57.06
9855;BME280;4966;48.112;9.282;2022-10-23T13:05:52;94439.09;;;21.24;59.88
9855;BME280;4966;48.112;9.282;2022-10-23T13:08:20;94440.84;;;21.76;58.69
9855;BME280;4966;48.112;9.282;2022-10-23T13:10:47;94441.84;;;22.20;57.87
9855;BME280;4966;48.112;9.282;2022-10-23T13:13:19;94449.78;;;21.22;61.04
9855;BME280;4966;48.112;9.282;2022-10-23T13:15:45;94458.59;;;20.72;62.47
9855;BME280;4966;48.112;9.282;2022-10-23T13:18:12;94454.63;;;20.73;63.89
9855;BME280;4966;48.112;9.282;2022-10-23T13:20:57;94445.22;;;21.04;62.46
9855;BME280;4966;48.112;9.282;2022-10-23T13:23:33;94451.78;;;20.31;64.47
9855;BME280;4966;48.112;9.282;2022-10-23T13:26:00;94454.88;;;20.37;64.84
9855;BME280;4966;48.112;9.282;2022-10-23T13:28:46;94453.97;;;20.58;64.57
9855;BME280;4966;48.112;9.282;2022-10-23T13:33:45;94463.84;;;20.52;63.18
9855;BME280;4966;48.112;9.282;2022-10-23T13:38:42;94439.38;;;20.57;63.53
9855;BME280;4966;48.112;9.282;2022-10-23T13:41:12;94455.97;;;20.50;64.08
9855;BME280;4966;48.112;9.282;2022-10-23T13:43:39;94469.63;;;20.19;63.84
9855;BME280;4966;48.112;9.282;2022-10-23T13:46:05;94460.16;;;20.13;63.95
9855;BME280;4966;48.112;9.282;2022-10-23T13:48:36;94466.22;;;19.94;65.18
9855;BME280;4966;48.112;9.282;2022-10-23T13:51:10;94480.94;;;19.62;66.91
9855;BME280;4966;48.112;9.282;2022-10-23T13:53:36;94476.34;;;19.20;68.84
9855;BME280;4966;48.112;9.282;2022-10-23T13:56:01;94460.91;;;19.44;66.77
9855;BME280;4966;48.112;9.282;2022-10-23T13:58:27;94446.19;;;19.79;64.66
9855;BME280;4966;48.112;9.282;2022-10-23T14:00:52;94457.28;;;19.65;64.04
9855;BME280;4966;48.112;9.282;2022-10-23T14:03:18;94437.44;;;19.95;63.37
9855;BME280;4966;48.112;9.282;2022-10-23T14:05:44;94434.16;;;20.11;62.52
9855;BME280;4966;48.112;9.282;2022-10-23T14:08:10;94417.81;;;20.83;59.52
9855;BME280;4966;48.112;9.282;2022-10-23T14:10:35;94415.25;;;20.99;58.51
9855;BME280;4966;48.112;9.282;2022-10-23T14:13:01;94439.16;;;20.79;60.18
9855;BME280;4966;48.112;9.282;2022-10-23T14:15:26;94423.13;;;21.01;59.32
9855;BME280;4966;48.112;9.282;2022-10-23T14:17:51;94419.22;;;20.98;60.59
9855;BME280;4966;48.112;9.282;2022-10-23T14:20:17;94437.00;;;20.52;61.78
9855;BME280;4966;48.112;9.282;2022-10-23T14:22:42;94449.78;;;20.35;63.31
9855;BME280;4966;48.112;9.282;2022-10-23T14:25:07;94452.53;;;19.65;65.66
9855;BME280;4966;48.112;9.282;2022-10-23T14:27:33;94459.06;;;20.04;64.43
9855;BME280;4966;48.112;9.282;2022-10-23T14:29:58;94458.53;;;20.23;63.33
9855;BME280;4966;48.112;9.282;2022-10-23T14:32:24;94469.63;;;20.19;63.52
9855;BME280;4966;48.112;9.282;2022-10-23T14:34:51;94475.19;;;20.12;63.42
9855;BME280;4966;48.112;9.282;2022-10-23T14:37:17;94482.34;;;19.99;64.29
9855;BME280;4966;48.112;9.282;2022-10-23T14:39:43;94478.94;;;19.73;64.06
9855;BME280;4966;48.112;9.282;2022-10-23T14:42:09;94464.63;;;19.96;62.14
9855;BME280;4966;48.112;9.282;2022-10-23T14:44:34;94458.91;;;20.29;60.99
9855;BME280;4966;48.112;9.282;2022-10-23T14:47:00;94470.78;;;20.22;61.48
9855;BME280;4966;48.112;9.282;2022-10-23T14:49:27;94462.78;;;20.87;60.70
9855;BME280;4966;48.112;9.282;2022-10-23T14:51:52;94455.53;;;21.73;56.70
9855;BME280;4966;48.112;9.282;2022-10-23T14:54:18;94455.41;;;21.53;56.17
9855;BME280;4966;48.112;9.282;2022-10-23T14:56:43;94450.91;;;21.93;54.46
9855;BME280;4966;48.112;9.282;2022-10-23T14:59:08;94430.63;;;22.00;55.56
9855;BME280;4966;48.112;9.282;2022-10-23T15:01:38;94435.75;;;21.74;56.11
9855;BME280;4966;48.112;9.282;2022-10-23T15:04:04;94441.66;;;21.45;57.02
9855;BME280;4966;48.112;9.282;2022-10-23T15:06:30;94425.97;;;21.32;57.40
9855;BME280;4966;48.112;9.282;2022-10-23T15:08:56;94417.13;;;21.10;57.96
9855;BME280;4966;48.112;9.282;2022-10-23T15:11:23;94420.00;;;20.99;58.52
9855;BME280;4966;48.112;9.282;2022-10-23T15:13:49;94405.25;;;20.75;59.24
9855;BME280;4966;48.112;9.282;2022-10-23T15:16:15;94417.97;;;20.65;60.51
9855;BME280;4966;48.112;9.282;2022-10-23T15:18:40;94409.94;;;21.16;58.89